createdAt,value
2023-01-21T00:00:24.808Z,30.70
2023-01-21T00:01:00.558Z,30.73
2023-01-21T00:01:34.059Z,30.90
2023-01-21T00:02:13.341Z,31.70
2023-01-21T00:02:45.557Z,31.37
2023-01-21T00:03:18.966Z,32.00
2023-01-21T00:03:56.864Z,30.97
2023-01-21T00:04:29.318Z,31.47
2023-01-21T00:05:01.377Z,31.20
2023-01-21T00:05:35.573Z,31.50
2023-01-21T00:06:09.958Z,33.00
2023-01-21T00:06:47.621Z,32.70
2023-01-21T00:07:22.409Z,31.50
2023-01-21T00:07:54.596Z,32.60
2023-01-21T00:08:29.448Z,32.83
2023-01-21T00:09:04.377Z,30.77
2023-01-21T00:09:40.726Z,32.10
2023-01-21T00:10:19.700Z,31.07
2023-01-21T00:10:52.327Z,31.37
2023-01-21T00:11:30.679Z,31.47
2023-01-21T00:12:39.447Z,33.13
2023-01-21T00:13:11.365Z,31.37
2023-01-21T00:13:49.873Z,31.53
2023-01-21T00:14:26.517Z,32.30
2023-01-21T00:15:00.869Z,31.83
2023-01-21T00:15:32.670Z,32.40
2023-01-21T00:16:05.640Z,31.43
2023-01-21T00:16:37.607Z,30.63
2023-01-21T00:17:11.514Z,31.07
2023-01-21T00:17:44.588Z,30.77
2023-01-21T00:18:19.063Z,31.70
2023-01-21T00:18:51.303Z,31.90
2023-01-21T00:19:25.725Z,31.60
2023-01-21T00:20:05.879Z,31.07
2023-01-21T00:20:40.821Z,32.13
2023-01-21T00:21:19.126Z,32.37
2023-01-21T00:21:51.831Z,31.43
2023-01-21T00:22:23.692Z,30.60
2023-01-21T00:22:55.568Z,30.27
2023-01-21T00:23:29.672Z,31.60
2023-01-21T00:24:01.325Z,31.83
2023-01-21T00:24:33.067Z,30.73
2023-01-21T00:25:05.038Z,29.80
2023-01-21T00:25:36.675Z,30.57
2023-01-21T00:26:13.589Z,30.70
2023-01-21T00:26:45.217Z,31.03
2023-01-21T00:27:16.912Z,31.30
2023-01-21T00:27:48.560Z,32.63
2023-01-21T00:28:20.219Z,31.73
2023-01-21T00:28:51.857Z,31.17
2023-01-21T00:29:23.566Z,30.10
2023-01-21T00:29:55.241Z,31.07
2023-01-21T00:30:27.043Z,31.93
2023-01-21T00:31:00.078Z,31.43
2023-01-21T00:31:31.993Z,30.77
2023-01-21T00:32:03.787Z,30.93
2023-01-21T00:32:35.425Z,31.13
2023-01-21T00:33:07.681Z,31.30
2023-01-21T00:33:39.555Z,30.73
2023-01-21T00:34:11.483Z,30.60
2023-01-21T00:34:43.209Z,31.00
2023-01-21T00:35:15.153Z,30.83
2023-01-21T00:35:49.679Z,31.03
2023-01-21T00:36:22.333Z,30.90
2023-01-21T00:36:56.402Z,29.83
2023-01-21T00:37:28.232Z,31.40
2023-01-21T00:38:00.007Z,31.77
2023-01-21T00:38:32.492Z,31.60
2023-01-21T00:39:04.130Z,30.03
2023-01-21T00:39:35.789Z,30.23
2023-01-21T00:40:08.458Z,30.67
2023-01-21T00:40:40.263Z,30.80
2023-01-21T00:41:14.114Z,30.17
2023-01-21T00:41:45.874Z,31.30
2023-01-21T00:42:17.547Z,30.07
2023-01-21T00:42:49.223Z,31.00
2023-01-21T00:43:20.874Z,30.37
2023-01-21T00:43:53.215Z,30.40
2023-01-21T00:44:24.912Z,30.90
2023-01-21T00:44:57.491Z,30.70
2023-01-21T00:45:29.209Z,31.53
2023-01-21T00:46:01.295Z,31.13
2023-01-21T00:46:34.248Z,30.67
2023-01-21T00:47:06.730Z,30.97
2023-01-21T00:47:38.398Z,30.37
2023-01-21T00:48:14.080Z,30.83
2023-01-21T00:48:46.247Z,30.03
2023-01-21T00:49:17.937Z,30.63
2023-01-21T00:49:49.606Z,30.80
2023-01-21T00:50:21.262Z,31.50
2023-01-21T00:50:55.898Z,31.27
2023-01-21T00:51:27.935Z,31.63
2023-01-21T00:52:02.289Z,31.83
2023-01-21T00:52:35.784Z,31.00
2023-01-21T00:53:07.446Z,31.47
2023-01-21T00:53:45.927Z,30.60
2023-01-21T00:54:17.653Z,30.00
2023-01-21T00:54:49.350Z,29.43
2023-01-21T00:55:21.135Z,29.77
2023-01-21T00:55:55.305Z,30.47
2023-01-21T00:56:28.861Z,30.43
2023-01-21T00:57:02.415Z,30.43
2023-01-21T00:57:36.026Z,30.67
2023-01-21T00:58:10.329Z,30.33
2023-01-21T00:58:44.985Z,30.10
2023-01-21T00:59:16.855Z,31.00
2023-01-21T00:59:48.773Z,30.73
2023-01-21T01:00:20.579Z,30.77
2023-01-21T01:01:05.762Z,30.73
2023-01-21T01:01:38.579Z,30.50
2023-01-21T01:02:10.480Z,30.60
2023-01-21T01:02:51.955Z,30.77
2023-01-21T01:03:23.628Z,30.40
2023-01-21T01:03:55.299Z,30.83
2023-01-21T01:04:27.043Z,32.27
2023-01-21T01:04:58.696Z,31.13
2023-01-21T01:05:30.450Z,31.00
2023-01-21T01:06:11.725Z,31.40
2023-01-21T01:06:43.393Z,29.53
2023-01-21T01:07:15.053Z,29.43
2023-01-21T01:07:49.108Z,30.17
2023-01-21T01:08:20.757Z,29.70
2023-01-21T01:08:52.720Z,30.10
2023-01-21T01:09:24.413Z,30.87
2023-01-21T01:09:56.060Z,31.20
2023-01-21T01:10:27.721Z,30.70
2023-01-21T01:11:00.421Z,30.57
2023-01-21T01:11:32.231Z,31.07
2023-01-21T01:12:06.397Z,30.10
2023-01-21T01:12:38.100Z,30.13
2023-01-21T01:13:09.788Z,30.70
2023-01-21T01:13:43.767Z,31.53
2023-01-21T01:14:15.451Z,31.43
2023-01-21T01:14:47.625Z,31.23
2023-01-21T01:15:19.323Z,31.93
2023-01-21T01:15:55.980Z,30.97
2023-01-21T01:16:27.897Z,30.80
2023-01-21T01:17:01.908Z,30.83
2023-01-21T01:17:41.651Z,31.23
2023-01-21T01:18:13.377Z,31.20
2023-01-21T01:18:45.278Z,31.47
2023-01-21T01:19:17.441Z,30.13
2023-01-21T01:19:49.075Z,31.90
2023-01-21T01:20:20.732Z,32.30
2023-01-21T01:20:55.257Z,31.13
2023-01-21T01:21:27.004Z,31.93
2023-01-21T01:22:00.764Z,31.77
2023-01-21T01:22:32.478Z,31.37
2023-01-21T01:23:39.929Z,31.37
2023-01-21T01:24:11.782Z,31.83
2023-01-21T01:24:43.461Z,32.00
2023-01-21T01:25:15.237Z,31.57
2023-01-21T01:26:03.256Z,32.27
2023-01-21T01:26:37.736Z,32.40
2023-01-21T01:27:11.714Z,31.80
2023-01-21T01:27:46.177Z,32.47
2023-01-21T01:28:17.912Z,31.80
2023-01-21T01:28:49.708Z,32.03
2023-01-21T01:29:21.438Z,31.93
2023-01-21T01:29:53.083Z,32.27
2023-01-21T01:30:24.772Z,32.90
2023-01-21T01:30:58.142Z,32.07
2023-01-21T01:31:30.014Z,32.37
2023-01-21T01:32:01.732Z,32.57
2023-01-21T01:32:33.376Z,32.53
2023-01-21T01:33:05.111Z,32.80
2023-01-21T01:33:36.846Z,33.13
2023-01-21T01:34:08.514Z,31.97
2023-01-21T01:34:40.357Z,32.00
2023-01-21T01:35:14.100Z,33.03
2023-01-21T01:35:49.521Z,33.40
2023-01-21T01:36:25.357Z,34.47
2023-01-21T01:36:57.043Z,33.13
2023-01-21T01:37:28.724Z,32.37
2023-01-21T01:38:09.855Z,32.57
2023-01-21T01:38:41.980Z,32.40
2023-01-21T01:39:14.170Z,32.97
2023-01-21T01:39:48.155Z,33.07
2023-01-21T01:40:22.303Z,32.53
2023-01-21T01:40:54.025Z,32.87
2023-01-21T01:41:28.681Z,33.03
2023-01-21T01:42:00.410Z,32.27
2023-01-21T01:42:34.191Z,32.90
2023-01-21T01:43:22.337Z,33.87
2023-01-21T01:44:04.880Z,32.80
2023-01-21T01:44:57.400Z,32.63
2023-01-21T01:45:29.232Z,32.17
2023-01-21T01:46:02.203Z,34.00
2023-01-21T01:46:38.139Z,33.70
2023-01-21T01:47:12.076Z,32.57
2023-01-21T01:48:03.378Z,33.13
2023-01-21T01:48:35.375Z,32.63
2023-01-21T01:49:19.547Z,32.77
2023-01-21T01:49:54.689Z,33.60
2023-01-21T01:50:34.854Z,32.50
2023-01-21T01:51:07.890Z,32.80
2023-01-21T01:51:52.061Z,32.67
2023-01-21T01:52:24.789Z,32.40
2023-01-21T01:53:00.936Z,32.77
2023-01-21T01:53:35.583Z,32.80
2023-01-21T01:54:09.881Z,32.80
2023-01-21T01:54:47.921Z,32.57
2023-01-21T01:55:22.789Z,33.00
2023-01-21T01:55:56.200Z,32.60
2023-01-21T01:56:30.050Z,33.53
2023-01-21T01:57:05.337Z,32.30
2023-01-21T01:57:42.195Z,32.40
2023-01-21T02:06:58.174Z,34.63
2023-01-21T02:07:42.058Z,33.73
2023-01-21T02:08:14.764Z,35.43
2023-01-21T02:08:48.415Z,33.77
2023-01-21T02:09:20.421Z,35.50
2023-01-21T02:09:56.912Z,35.43
2023-01-21T02:10:38.861Z,35.10
2023-01-21T02:11:32.945Z,34.80
2023-01-21T02:12:16.028Z,36.13
2023-01-21T02:12:49.608Z,34.30
2023-01-21T02:13:22.270Z,34.63
2023-01-21T02:14:08.002Z,36.00
2023-01-21T02:14:43.262Z,34.87
2023-01-21T02:15:15.196Z,34.93
2023-01-21T02:16:30.249Z,35.27
2023-01-21T02:17:37.730Z,35.10
2023-01-21T02:18:52.779Z,34.87
2023-01-21T02:21:25.603Z,33.83
2023-01-21T02:22:11.073Z,35.27
2023-01-21T02:23:10.342Z,34.20
2023-01-21T02:24:14.954Z,34.20
2023-01-21T02:25:37.725Z,35.23
2023-01-21T02:26:21.770Z,34.70
2023-01-21T02:29:19.263Z,34.90
2023-01-21T02:30:45.488Z,34.97
2023-01-21T02:31:29.981Z,33.13
2023-01-21T02:32:36.966Z,32.43
2023-01-21T03:15:11.620Z,34.60
2023-01-21T03:16:15.792Z,34.87
2023-01-21T03:17:01.988Z,34.23
2023-01-21T03:17:42.280Z,35.10
2023-01-21T03:18:36.854Z,35.43
2023-01-21T03:19:14.681Z,35.77
2023-01-21T03:20:08.273Z,35.70
2023-01-21T03:20:45.638Z,34.47
2023-01-21T03:21:25.222Z,36.10
2023-01-21T03:22:09.031Z,35.07
2023-01-21T03:22:42.137Z,34.30
2023-01-21T03:23:20.204Z,35.03
2023-01-21T03:23:56.550Z,36.40
2023-01-21T03:24:31.646Z,35.93
2023-01-21T03:25:05.958Z,34.80
2023-01-21T03:25:41.822Z,35.03
2023-01-21T03:26:19.258Z,35.07
2023-01-21T03:26:57.185Z,35.50
2023-01-21T03:27:32.990Z,35.63
2023-01-21T03:28:11.329Z,35.33
2023-01-21T03:28:48.048Z,35.87
2023-01-21T03:29:25.463Z,35.80
2023-01-21T03:30:12.784Z,34.80
2023-01-21T03:31:17.706Z,34.90
2023-01-21T03:32:04.125Z,36.23
2023-01-21T03:32:39.831Z,36.00
2023-01-21T03:33:17.574Z,35.43
2023-01-21T03:35:11.922Z,34.43
2023-01-21T03:35:49.324Z,34.47
2023-01-21T03:39:48.730Z,36.87
2023-01-21T03:41:10.139Z,35.70
2023-01-21T03:41:58.193Z,34.93
2023-01-21T03:42:39.607Z,35.63
2023-01-21T03:43:12.650Z,35.77
2023-01-21T03:43:49.766Z,35.63
2023-01-21T03:44:25.647Z,36.43
2023-01-21T03:45:05.909Z,36.63
2023-01-21T03:50:57.766Z,36.33
2023-01-21T03:54:42.251Z,36.27
2023-01-21T03:55:45.578Z,36.47
2023-01-21T03:56:30.515Z,37.23
2023-01-21T04:01:50.408Z,36.60
2023-01-21T04:04:25.280Z,36.67
2023-01-21T04:42:24.893Z,44.03
2023-01-21T04:43:48.213Z,44.50
2023-01-21T04:44:21.653Z,43.97
2023-01-21T04:45:01.066Z,43.57
2023-01-21T04:45:33.944Z,44.60
2023-01-21T04:46:07.216Z,42.97
2023-01-21T04:46:39.015Z,43.17
2023-01-21T04:47:10.819Z,42.27
2023-01-21T04:47:43.850Z,43.17
2023-01-21T04:48:18.585Z,42.57
2023-01-21T04:48:50.664Z,43.80
2023-01-21T04:49:30.880Z,44.67
2023-01-21T04:50:06.208Z,44.93
2023-01-21T04:50:38.231Z,42.20
2023-01-21T04:51:11.377Z,41.53
2023-01-21T04:51:43.454Z,42.47
2023-01-21T04:52:17.966Z,43.97
2023-01-21T04:52:49.925Z,43.83
2023-01-21T04:53:21.957Z,42.50
2023-01-21T04:53:53.900Z,42.63
2023-01-21T04:54:25.643Z,43.80
2023-01-21T04:54:57.389Z,43.00
2023-01-21T04:55:29.304Z,42.67
2023-01-21T04:56:01.025Z,43.10
2023-01-21T04:56:32.816Z,42.40
2023-01-21T04:57:04.647Z,43.00
2023-01-21T04:57:41.155Z,43.37
2023-01-21T04:58:20.595Z,42.40
2023-01-21T04:58:52.376Z,41.80
2023-01-21T04:59:26.984Z,41.90
2023-01-21T04:59:58.790Z,41.83
2023-01-21T05:00:30.667Z,42.37
2023-01-21T05:01:06.528Z,42.13
2023-01-21T05:01:38.325Z,42.20
2023-01-21T05:02:12.979Z,41.77
2023-01-21T05:02:45.000Z,40.97
2023-01-21T05:03:24.302Z,40.83
2023-01-21T05:04:00.729Z,41.93
2023-01-21T05:04:36.024Z,42.77
2023-01-21T05:05:09.053Z,42.43
2023-01-21T05:05:41.225Z,41.47
2023-01-21T05:06:20.818Z,42.03
2023-01-21T05:06:57.410Z,42.40
2023-01-21T05:07:29.536Z,42.73
2023-01-21T05:08:01.993Z,42.57
2023-01-21T05:08:34.302Z,42.17
2023-01-21T05:09:08.854Z,41.77
2023-01-21T05:09:49.617Z,41.87
2023-01-21T05:10:22.216Z,41.77
2023-01-21T05:10:56.767Z,41.57
2023-01-21T05:11:31.156Z,41.70
2023-01-21T05:12:03.455Z,42.80
2023-01-21T05:13:24.699Z,41.60
2023-01-21T05:13:56.982Z,42.17
2023-01-21T05:14:39.487Z,42.20
2023-01-21T05:15:14.936Z,41.93
2023-01-21T05:15:47.647Z,40.97
2023-01-21T05:16:20.117Z,41.83
2023-01-21T05:17:00.159Z,41.43
2023-01-21T05:17:35.518Z,42.13
2023-01-21T05:18:10.257Z,41.67
2023-01-21T05:19:28.849Z,41.50
2023-01-21T05:20:01.155Z,41.47
2023-01-21T05:20:33.283Z,39.63
2023-01-21T05:21:06.953Z,39.73
2023-01-21T05:22:27.990Z,42.07
2023-01-21T05:23:00.379Z,40.60
2023-01-21T05:23:32.957Z,41.07
2023-01-21T05:24:05.246Z,42.03
2023-01-21T05:27:41.994Z,40.47
2023-01-21T05:28:14.000Z,41.37
2023-01-21T05:28:46.147Z,42.63
2023-01-21T05:29:25.646Z,41.23
2023-01-21T05:30:06.638Z,40.30
2023-01-21T05:30:44.804Z,41.10
2023-01-21T06:15:17.082Z,48.20
2023-01-21T06:15:49.253Z,46.63
2023-01-21T06:16:21.377Z,44.43
2023-01-21T06:17:03.231Z,42.53
2023-01-21T07:03:30.697Z,41.80
2023-01-21T07:04:11.260Z,42.73
2023-01-21T07:04:59.232Z,41.93
2023-01-21T07:05:34.979Z,43.00
2023-01-21T07:06:26.901Z,41.40
2023-01-21T07:12:13.468Z,40.40
2023-01-21T07:12:45.574Z,38.07
2023-01-21T07:30:25.460Z,42.30
2023-01-21T07:31:00.047Z,42.60
2023-01-21T07:31:34.213Z,42.30
2023-01-21T07:32:07.205Z,41.80
2023-01-21T07:32:41.065Z,41.93
2023-01-21T07:33:12.830Z,43.87
2023-01-21T07:33:44.528Z,45.60
2023-01-21T07:34:16.562Z,46.47
2023-01-21T07:34:48.224Z,53.43
2023-01-21T07:35:20.181Z,62.17
2023-01-21T07:35:54.475Z,61.30
2023-01-21T07:36:26.933Z,61.47
2023-01-21T07:36:58.628Z,63.03
2023-01-21T07:37:30.334Z,58.43
2023-01-21T07:38:05.200Z,49.53
2023-01-21T07:38:42.066Z,48.07
2023-01-21T07:39:13.813Z,46.80
2023-01-21T07:39:45.530Z,47.07
2023-01-21T07:40:17.470Z,48.60
2023-01-21T07:41:40.750Z,44.47
2023-01-21T07:42:12.932Z,44.67
2023-01-21T07:42:50.285Z,45.33
2023-01-21T07:43:53.116Z,44.17
2023-01-21T08:11:08.605Z,40.33
2023-01-21T08:11:40.291Z,38.43
2023-01-21T08:12:11.947Z,36.73
2023-01-21T08:12:47.079Z,37.33
2023-01-21T08:13:21.624Z,38.40
2023-01-21T08:13:53.281Z,36.73
2023-01-21T08:14:24.903Z,35.97
2023-01-21T08:14:56.576Z,37.13
2023-01-21T08:15:30.846Z,37.50
2023-01-21T08:16:04.615Z,38.90
2023-01-21T08:16:36.437Z,39.90
2023-01-21T08:17:08.165Z,40.20
2023-01-21T08:17:47.515Z,39.87
2023-01-21T08:18:20.654Z,38.53
2023-01-21T08:18:55.218Z,37.17
2023-01-21T08:19:27.692Z,36.83
2023-01-21T08:19:59.415Z,38.23
2023-01-21T08:20:31.089Z,37.43
2023-01-21T08:21:07.494Z,37.40
2023-01-21T08:21:41.086Z,38.83
2023-01-21T08:22:15.127Z,37.67
2023-01-21T08:22:49.080Z,38.43
2023-01-21T08:23:22.832Z,39.27
2023-01-21T08:23:54.546Z,39.30
2023-01-21T08:24:26.237Z,38.03
2023-01-21T08:24:57.883Z,36.17
2023-01-21T08:25:31.214Z,37.03
2023-01-21T08:26:08.293Z,36.27
2023-01-21T08:26:42.305Z,35.00
2023-01-21T08:27:13.959Z,35.57
2023-01-21T08:27:45.682Z,36.07
2023-01-21T08:28:19.717Z,36.00
2023-01-21T08:28:57.122Z,35.30
2023-01-21T08:29:29.422Z,35.73
2023-01-21T08:30:01.092Z,35.93
2023-01-21T08:30:36.187Z,35.07
2023-01-21T08:31:11.530Z,36.33
2023-01-21T08:31:45.251Z,35.90
2023-01-21T08:32:18.500Z,35.90
2023-01-21T08:32:50.856Z,34.63
2023-01-21T08:33:22.505Z,33.43
2023-01-21T08:33:55.754Z,34.13
2023-01-21T08:34:27.417Z,33.57
2023-01-21T08:34:59.089Z,34.07
2023-01-21T08:35:32.099Z,35.90
2023-01-21T08:36:07.596Z,36.30
2023-01-21T08:36:39.822Z,36.87
2023-01-21T08:37:11.517Z,35.77
2023-01-21T08:37:43.557Z,36.27
2023-01-21T08:38:15.230Z,36.63
2023-01-21T08:38:48.732Z,37.37
2023-01-21T08:39:20.981Z,39.57
2023-01-21T08:39:52.637Z,40.27
2023-01-21T08:40:26.455Z,37.40
2023-01-21T08:41:01.003Z,36.30
2023-01-21T08:41:36.977Z,36.97
2023-01-21T08:42:08.765Z,38.10
2023-01-21T08:42:40.393Z,39.03
2023-01-21T08:43:12.073Z,40.37
2023-01-21T08:43:51.336Z,40.30
2023-01-21T08:44:23.294Z,40.00
2023-01-21T08:44:57.460Z,39.70
2023-01-21T08:45:30.300Z,39.23
2023-01-21T08:46:02.070Z,38.87
2023-01-21T08:46:34.302Z,39.07
2023-01-21T08:47:05.961Z,37.30
2023-01-21T08:47:37.939Z,37.20
2023-01-21T08:48:11.935Z,37.83
2023-01-21T08:48:46.145Z,38.03
2023-01-21T08:49:17.865Z,37.30
2023-01-21T08:49:49.695Z,37.97
2023-01-21T08:50:22.218Z,36.10
2023-01-21T08:50:53.934Z,35.93
2023-01-21T08:51:25.741Z,36.90
2023-01-21T08:52:00.016Z,39.10
2023-01-21T08:52:31.700Z,37.67
2023-01-21T08:53:03.556Z,36.53
2023-01-21T08:53:35.238Z,35.57
2023-01-21T08:54:07.349Z,37.47
2023-01-21T08:54:42.179Z,36.00
2023-01-21T08:55:14.004Z,36.47
2023-01-21T08:55:45.798Z,35.90
2023-01-21T08:56:18.681Z,37.40
2023-01-21T08:56:52.905Z,36.67
2023-01-21T08:57:24.621Z,37.03
2023-01-21T08:57:58.592Z,37.53
2023-01-21T08:58:33.210Z,37.60
2023-01-21T08:59:04.943Z,36.10
2023-01-21T08:59:36.646Z,36.23
2023-01-21T09:00:08.988Z,35.03
2023-01-21T09:00:44.381Z,34.17
2023-01-21T09:01:16.101Z,33.83
2023-01-21T09:01:47.821Z,34.30
2023-01-21T09:02:19.550Z,34.27
2023-01-21T09:02:54.365Z,33.33
2023-01-21T09:03:28.897Z,34.10
2023-01-21T09:04:01.245Z,35.07
2023-01-21T09:04:32.930Z,35.80
2023-01-21T09:05:05.026Z,35.03
2023-01-21T09:05:36.704Z,36.87
2023-01-21T09:06:08.844Z,37.70
2023-01-21T09:06:40.551Z,38.10
2023-01-21T09:07:12.269Z,37.43
2023-01-21T09:07:44.741Z,37.83
2023-01-21T09:08:16.460Z,36.53
2023-01-21T09:08:51.281Z,35.40
2023-01-21T09:09:22.973Z,35.03
2023-01-21T09:09:54.659Z,35.27
2023-01-21T09:10:45.081Z,35.33
2023-01-21T09:11:18.788Z,34.37
2023-01-21T09:11:52.443Z,33.57
2023-01-21T09:12:28.091Z,33.63
2023-01-21T09:13:04.210Z,33.77
2023-01-21T09:13:40.924Z,33.60
2023-01-21T09:14:15.157Z,34.23
2023-01-21T09:14:46.857Z,33.47
2023-01-21T09:15:18.796Z,33.40
2023-01-21T09:15:52.947Z,33.43
2023-01-21T09:16:27.144Z,32.97
2023-01-21T09:16:58.871Z,32.67
2023-01-21T09:17:30.927Z,33.90
2023-01-21T09:18:02.617Z,34.90
2023-01-21T09:18:34.490Z,35.27
2023-01-21T09:19:07.468Z,35.10
2023-01-21T09:19:39.200Z,35.60
2023-01-21T09:20:11.585Z,36.77
2023-01-21T09:20:43.365Z,35.67
2023-01-21T09:21:15.910Z,35.90
2023-01-21T09:21:53.467Z,36.10
2023-01-21T09:22:25.136Z,35.87
2023-01-21T09:23:00.099Z,35.43
2023-01-21T09:23:34.436Z,35.73
2023-01-21T09:24:06.733Z,35.27
2023-01-21T09:24:38.460Z,36.37
2023-01-21T09:25:10.538Z,35.97
2023-01-21T09:25:44.312Z,35.80
2023-01-21T09:26:28.631Z,35.17
2023-01-21T09:27:00.311Z,34.63
2023-01-21T09:27:31.996Z,34.80
2023-01-21T09:28:03.754Z,35.17
2023-01-21T09:28:39.769Z,36.70
2023-01-21T09:29:13.936Z,35.93
2023-01-21T09:29:45.849Z,35.10
2023-01-21T09:30:17.747Z,36.07
2023-01-21T09:30:49.505Z,35.93
2023-01-21T09:31:23.451Z,35.50
2023-01-21T09:31:57.954Z,35.57
2023-01-21T09:32:31.790Z,36.30
2023-01-21T09:33:03.569Z,35.63
2023-01-21T09:33:41.932Z,35.90
2023-01-21T09:34:13.913Z,35.03
2023-01-21T09:34:45.611Z,36.13
2023-01-21T09:35:17.543Z,35.17
2023-01-21T09:35:57.482Z,35.77
2023-01-21T09:36:31.675Z,34.87
2023-01-21T09:37:05.829Z,35.20
2023-01-21T09:37:38.755Z,35.70
2023-01-21T09:38:12.151Z,36.70
2023-01-21T09:38:46.680Z,35.23
2023-01-21T09:39:18.420Z,35.00
2023-01-21T09:39:50.172Z,36.33
2023-01-21T09:40:22.500Z,35.37
2023-01-21T09:40:59.272Z,35.37
2023-01-21T09:41:34.941Z,34.73
2023-01-21T09:42:21.848Z,34.90
2023-01-21T09:42:53.618Z,35.37
2023-01-21T09:43:45.360Z,33.70
2023-01-21T09:44:28.912Z,34.17
2023-01-21T09:45:04.502Z,33.67
2023-01-21T09:45:36.875Z,35.13
2023-01-21T09:46:23.352Z,35.77
2023-01-21T09:47:25.085Z,34.93
2023-01-21T09:47:58.730Z,34.00
2023-01-21T09:48:42.104Z,35.10
2023-01-21T09:49:27.371Z,33.70
2023-01-21T09:50:14.288Z,34.37
2023-01-21T09:50:51.376Z,35.30
2023-01-21T09:51:41.297Z,34.50
2023-01-21T09:52:48.895Z,33.77
2023-01-21T09:53:30.344Z,35.47
2023-01-21T09:54:06.723Z,34.67
2023-01-21T09:54:42.003Z,35.13
2023-01-21T09:55:20.052Z,35.27
2023-01-21T09:55:55.636Z,34.67
2023-01-21T09:57:11.750Z,34.83
2023-01-21T09:58:04.715Z,37.23
2023-01-21T09:58:48.289Z,42.40
2023-01-21T09:59:46.503Z,40.93
2023-01-21T10:00:33.075Z,39.77
2023-01-21T10:01:20.181Z,38.40
2023-01-21T10:01:54.752Z,40.00
2023-01-21T10:02:27.471Z,40.10
2023-01-21T10:03:20.157Z,42.73
2023-01-21T10:04:22.763Z,42.63
2023-01-21T10:05:08.408Z,43.40
2023-01-21T10:06:05.756Z,41.87
2023-01-21T10:06:43.871Z,43.23
2023-01-21T10:07:23.095Z,44.57
2023-01-21T10:08:16.367Z,46.27
2023-01-21T10:09:18.869Z,45.30
2023-01-21T10:10:05.908Z,43.67
2023-01-21T10:10:51.663Z,43.90
2023-01-21T10:11:46.191Z,44.87
2023-01-21T10:12:40.407Z,45.53
2023-01-21T10:13:20.504Z,43.60
2023-01-21T10:14:20.092Z,45.93
2023-01-21T10:15:14.643Z,48.53
2023-01-21T10:16:09.474Z,47.40
2023-01-21T10:16:56.360Z,50.60
2023-01-21T10:17:44.009Z,47.13
2023-01-21T10:18:24.606Z,43.83
2023-01-21T10:19:00.747Z,42.50
2023-01-21T10:19:42.365Z,41.63
2023-01-21T10:20:40.438Z,43.33
2023-01-21T10:21:48.790Z,42.73
2023-01-21T10:22:26.640Z,45.33
2023-01-21T10:23:05.366Z,46.13
2023-01-21T10:23:43.191Z,46.97
2023-01-21T10:24:26.117Z,48.50
2023-01-21T10:25:20.071Z,50.87
2023-01-21T10:25:53.751Z,48.40
2023-01-21T10:26:29.854Z,43.17
2023-01-21T10:27:01.624Z,43.33
2023-01-21T10:27:37.404Z,44.87
2023-01-21T10:28:25.383Z,45.20
2023-01-21T10:28:57.167Z,45.07
2023-01-21T10:29:29.370Z,44.73
2023-01-21T10:30:09.603Z,42.53
2023-01-21T10:30:48.793Z,41.90
2023-01-21T10:31:31.836Z,43.67
2023-01-21T10:32:07.258Z,43.97
2023-01-21T10:32:40.383Z,43.67
2023-01-21T10:33:27.872Z,44.37
2023-01-21T10:33:59.712Z,44.00
2023-01-21T10:34:35.607Z,43.07
2023-01-21T10:35:20.749Z,43.90
2023-01-21T10:36:16.933Z,45.03
2023-01-21T10:37:21.447Z,42.37
2023-01-21T10:38:38.206Z,38.13
2023-01-21T10:39:30.833Z,39.17
2023-01-21T10:40:45.413Z,38.43
2023-01-21T10:41:40.380Z,38.70
2023-01-21T10:42:19.601Z,37.00
2023-01-21T10:43:03.495Z,38.60
2023-01-21T10:43:58.093Z,39.73
2023-01-21T10:44:53.337Z,40.57
2023-01-21T10:45:58.190Z,38.53
2023-01-21T10:46:45.181Z,39.70
2023-01-21T10:47:49.805Z,40.00
2023-01-21T10:48:40.132Z,38.83
2023-01-21T10:49:48.959Z,37.97
2023-01-21T10:50:47.317Z,37.83
2023-01-21T10:51:56.164Z,36.13
2023-01-21T10:52:39.538Z,34.73
2023-01-21T10:53:31.662Z,35.37
2023-01-21T10:54:36.785Z,34.50
2023-01-21T10:55:16.750Z,35.00
2023-01-21T10:56:03.479Z,34.30
2023-01-21T10:56:52.111Z,34.90
2023-01-21T10:57:36.446Z,34.97
2023-01-21T10:58:31.214Z,34.83
2023-01-21T10:59:26.831Z,35.50
2023-01-21T11:00:04.639Z,35.03
2023-01-21T11:00:46.737Z,36.50
2023-01-21T11:01:27.962Z,36.73
2023-01-21T11:02:25.867Z,37.73
2023-01-21T11:03:02.497Z,36.93
2023-01-21T11:03:47.634Z,36.30
2023-01-21T11:04:26.449Z,35.00
2023-01-21T11:05:02.602Z,34.83
2023-01-21T11:05:35.312Z,37.20
2023-01-21T11:06:15.065Z,37.17
2023-01-21T11:07:02.475Z,37.27
2023-01-21T11:07:42.124Z,38.07
2023-01-21T11:08:24.707Z,36.50
2023-01-21T11:09:00.164Z,36.27
2023-01-21T11:09:38.946Z,37.13
2023-01-21T11:10:21.029Z,35.60
2023-01-21T11:11:00.142Z,35.30
2023-01-21T11:11:34.806Z,34.70
2023-01-21T11:12:10.950Z,35.40
2023-01-21T11:12:44.844Z,34.57
2023-01-21T11:13:16.622Z,34.30
2023-01-21T11:13:50.075Z,34.20
2023-01-21T11:14:25.776Z,34.90
2023-01-21T11:14:59.280Z,34.77
2023-01-21T11:15:33.878Z,36.60
2023-01-21T11:16:07.832Z,37.00
2023-01-21T11:16:39.455Z,38.27
2023-01-21T11:17:11.143Z,41.43
2023-01-21T11:17:46.637Z,42.50
2023-01-21T11:18:31.202Z,39.03
2023-01-21T11:19:07.848Z,37.27
2023-01-21T11:19:40.481Z,36.30
2023-01-21T11:20:21.837Z,35.27
2023-01-21T11:20:57.904Z,33.83
2023-01-21T11:21:29.609Z,34.37
2023-01-21T11:22:16.442Z,34.87
2023-01-21T11:22:56.821Z,36.20
2023-01-21T11:23:39.129Z,35.83
2023-01-21T11:24:23.556Z,36.80
2023-01-21T11:24:55.257Z,36.33
2023-01-21T11:25:39.133Z,37.17
2023-01-21T11:26:34.722Z,39.23
2023-01-21T11:27:06.416Z,41.07
2023-01-21T11:27:38.846Z,39.60
2023-01-21T11:28:25.625Z,36.77
2023-01-21T11:29:16.619Z,36.87
2023-01-21T11:29:51.376Z,37.07
2023-01-21T11:30:49.547Z,36.97
2023-01-21T11:31:29.534Z,38.77
2023-01-21T11:32:17.593Z,37.23
2023-01-21T11:32:49.383Z,37.43
2023-01-21T11:33:27.217Z,40.90
2023-01-21T11:34:14.573Z,43.27
2023-01-21T11:34:48.919Z,40.37
2023-01-21T11:35:24.553Z,39.87
2023-01-21T11:35:58.394Z,40.23
2023-01-21T11:36:30.297Z,41.63
2023-01-21T11:37:08.327Z,42.23
2023-01-21T11:37:40.955Z,40.27
2023-01-21T11:38:35.068Z,37.33
2023-01-21T11:39:10.324Z,34.90
2023-01-21T11:40:04.872Z,32.63
2023-01-21T11:40:38.972Z,32.73
2023-01-21T11:41:13.446Z,30.97
2023-01-21T11:41:55.416Z,32.03
2023-01-21T11:42:30.164Z,32.07
2023-01-21T11:43:01.859Z,32.33
2023-01-21T11:43:38.713Z,32.07
2023-01-21T11:44:18.278Z,31.60
2023-01-21T11:44:52.139Z,31.83
2023-01-21T11:45:34.170Z,31.60
2023-01-21T11:46:31.160Z,31.57
2023-01-21T11:47:02.922Z,31.87
2023-01-21T11:47:36.992Z,30.33
2023-01-21T11:48:21.112Z,30.57
2023-01-21T11:49:15.457Z,31.17
2023-01-21T11:49:50.900Z,30.10
2023-01-21T11:50:28.711Z,30.50
2023-01-21T11:51:07.481Z,29.47
2023-01-21T11:51:43.897Z,30.30
2023-01-21T11:52:19.554Z,29.20
2023-01-21T11:53:18.503Z,29.13
2023-01-21T11:54:22.160Z,30.13
2023-01-21T11:54:53.875Z,28.83
2023-01-21T11:55:30.155Z,29.40
2023-01-21T11:56:04.866Z,29.20
2023-01-21T11:56:36.842Z,29.73
2023-01-21T11:57:40.388Z,30.40
2023-01-21T11:58:30.132Z,30.53
2023-01-21T11:59:02.473Z,30.47
2023-01-21T11:59:46.918Z,31.50
2023-01-21T12:00:21.357Z,29.90
2023-01-21T12:01:01.723Z,30.33
2023-01-21T12:01:33.492Z,31.23
2023-01-21T12:02:25.451Z,31.80
2023-01-21T12:03:04.003Z,31.07
2023-01-21T12:03:43.300Z,30.43
2023-01-21T12:04:15.821Z,31.00
2023-01-21T12:05:08.307Z,30.47
2023-01-21T12:05:47.460Z,32.03
2023-01-21T12:06:23.352Z,30.83
2023-01-21T12:07:00.410Z,30.97
2023-01-21T12:07:36.217Z,30.77
2023-01-21T12:08:15.505Z,29.70
2023-01-21T12:08:52.077Z,30.57
2023-01-21T12:09:25.156Z,32.47
2023-01-21T12:10:24.264Z,30.83
2023-01-21T12:11:04.750Z,31.17
2023-01-21T12:11:37.667Z,31.60
2023-01-21T12:12:16.572Z,31.17
2023-01-21T12:13:02.976Z,31.57
2023-01-21T12:13:43.591Z,32.97
2023-01-21T12:14:40.414Z,33.77
2023-01-21T12:15:33.791Z,33.07
2023-01-21T12:16:29.624Z,32.40
2023-01-21T12:17:39.040Z,34.23
2023-01-21T12:18:14.067Z,32.33
2023-01-21T12:19:16.763Z,31.00
2023-01-21T12:20:19.747Z,31.33
2023-01-21T12:21:09.786Z,30.70
2023-01-21T12:22:18.225Z,30.83
2023-01-21T12:23:08.880Z,30.63
2023-01-21T12:24:19.737Z,31.10
2023-01-21T12:25:04.320Z,30.47
2023-01-21T12:26:07.544Z,29.13